Alma Center, WI

9:01 PM CST on February 28, 2015 (GMT -0600)
WIDOT Black River Falls - I-94 @ Sandcut Hill | Change Station
CLOSE
Current Station
Personal Weather Station
Location: Black River Falls, WI
Elevation: 1090 ft
Nearby Weather Stations

Elev 1090 ft 44.34 °N, 90.91 °W | Updated 52 minutes ago

Overcast
Overcast
15 °F
Feels Like 15 °F
N
0
Wind Variable Wind from North
Gusts 0.0 mph

Today
High -- | Low -- °F
--% Chance of Precip.
Yesterday
High -- | Low -- °F
Precip. -- in
6:43 AM 5:50 PM
Waxing Gibbous, 82% visible
Pressure 30.41 in
Visibility 10.0 miles
Clouds Overcast 8500 ft
Windchill 15 °F
Dew Point -4 °F
Humidity 42%
Rainfall -999.00 in
Snow Depth Not available.
UV 0 out of 12
Pollen .40 out of 12
Air Quality Not available.
Flu Activity Not available.
METAR KBCK 010235Z AUTO 19004KT 10SM OVC085 M08/M19 A3041 RMK AO2 T10851195

More Conditions Fewer Conditions

Pressure 30.41 in
Visibility 10.0 miles
Clouds Overcast 8500 ft
Windchill 15 °F
Dew Point -4 °F
Humidity 42%
Rainfall -999.00 in
Snow Depth Not available.
UV 0 out of 12
Pollen .40 out of 12
Air Quality Not available.
Flu Activity Not available.
METAR KBCK 010235Z AUTO 19004KT 10SM OVC085 M08/M19 A3041 RMK AO2 T10851195

More Conditions Fewer Conditions

10-Day Weather Forecast

Almanac

Astronomy

Feb. 28, 2015 Rise Set
Actual Time
Civil Twilight
Nautical Twilight
Astronomical Twilight
Moon
Length of Visible Light
Length of Day
Tomorrow will be .
, % of the Moon is Illuminated

Today's Extremes

State Highs State Lows

Community

WunderPhotos

Upload Photos

1,801,278 photos uploaded!

WunderBlogs® & News

Nearby

Air Quality

  Air Quality AQ Index Pollutant
Not available.

Snow Depth

Station Depth Elevation

Earthquake Activity

City Distance Mag. Time & Date
Minimum magnitude displayed is 2.5.

Coastal Water Temperatures

Place Temperature

Nearby Weather Stations